createdAt,value
2019-03-05T00:03:30.127Z,4.90
2019-03-05T00:07:33.482Z,3.83
2019-03-05T00:11:37.078Z,3.67
2019-03-05T00:15:40.454Z,4.23
2019-03-05T00:19:44.455Z,2.90
2019-03-05T00:23:53.251Z,4.30
2019-03-05T00:28:19.742Z,3.67
2019-03-05T00:32:23.522Z,2.67
2019-03-05T00:36:40.870Z,2.57
2019-03-05T00:40:53.594Z,3.07
2019-03-05T00:45:25.114Z,4.67
2019-03-05T00:49:49.254Z,2.50
2019-03-05T00:54:03.178Z,3.30
2019-03-05T00:58:27.135Z,3.30
2019-03-05T01:02:52.578Z,3.17
2019-03-05T01:06:56.304Z,3.20
2019-03-05T01:10:59.598Z,3.23
2019-03-05T01:15:03.842Z,3.40
2019-03-05T01:19:07.580Z,4.27
2019-03-05T01:23:10.939Z,4.10
2019-03-05T01:27:14.286Z,3.80
2019-03-05T01:31:28.142Z,3.83
2019-03-05T01:35:36.070Z,5.93
2019-03-05T01:39:55.263Z,4.43
2019-03-05T01:43:59.050Z,3.20
2019-03-05T01:48:02.440Z,3.50
2019-03-05T01:52:05.988Z,4.43
2019-03-05T01:56:09.278Z,3.87
2019-03-05T02:00:13.346Z,3.60
2019-03-05T02:04:16.810Z,4.07
2019-03-05T02:08:20.178Z,4.33
2019-03-05T02:12:23.934Z,4.20
2019-03-05T02:16:27.226Z,4.43
2019-03-05T02:20:30.506Z,6.90
2019-03-05T02:25:07.269Z,3.97
2019-03-05T02:29:17.598Z,4.17
2019-03-05T02:33:38.767Z,4.70
2019-03-05T02:37:55.334Z,4.63
2019-03-05T02:42:27.591Z,4.57
2019-03-05T02:46:50.822Z,3.80
2019-03-05T02:51:13.427Z,3.37
2019-03-05T02:55:21.647Z,3.37
2019-03-05T02:59:24.939Z,3.30
2019-03-05T03:03:35.618Z,3.90
2019-03-05T03:07:39.134Z,2.53
2019-03-05T03:11:42.685Z,3.10
2019-03-05T03:15:45.978Z,2.83
2019-03-05T03:19:49.267Z,3.40
2019-03-05T03:23:52.998Z,3.03
2019-03-05T03:27:57.043Z,3.27
2019-03-05T03:32:00.328Z,3.23
2019-03-05T03:36:04.068Z,4.13
2019-03-05T03:40:10.198Z,3.30
2019-03-05T03:44:13.923Z,3.70
2019-03-05T03:48:17.655Z,3.33
2019-03-05T03:52:20.943Z,3.00
2019-03-05T03:56:24.294Z,3.10
2019-03-05T04:00:28.168Z,3.50
2019-03-05T04:04:31.467Z,3.80
2019-03-05T04:08:35.325Z,2.43
2019-03-05T04:12:39.058Z,3.17
2019-03-05T04:16:42.343Z,2.80
2019-03-05T04:20:51.782Z,3.00
2019-03-05T04:24:55.383Z,2.90
2019-03-05T04:28:58.670Z,3.90
2019-03-05T04:33:02.409Z,3.30
2019-03-05T04:37:05.694Z,3.17
2019-03-05T04:41:09.012Z,3.03
2019-03-05T04:45:50.911Z,3.57
2019-03-05T04:50:19.954Z,2.73
2019-03-05T04:54:23.519Z,3.93
2019-03-05T04:58:27.606Z,4.10
2019-03-05T05:02:31.685Z,3.33
2019-03-05T05:06:35.538Z,3.80
2019-03-05T05:10:38.841Z,3.90
2019-03-05T05:14:42.571Z,2.67
2019-03-05T05:18:46.206Z,3.20
2019-03-05T05:22:49.938Z,3.40
2019-03-05T05:26:53.222Z,3.50
2019-03-05T05:30:56.528Z,2.60
2019-03-05T05:35:00.288Z,2.57
2019-03-05T05:39:04.962Z,3.30
2019-03-05T05:43:11.379Z,3.00
2019-03-05T05:47:15.112Z,3.27
2019-03-05T05:51:18.399Z,3.33
2019-03-05T05:55:22.434Z,2.70
2019-03-05T05:59:25.735Z,3.63
2019-03-05T06:03:29.472Z,3.20
2019-03-05T06:07:32.746Z,3.10
2019-03-05T06:11:36.034Z,3.00
2019-03-05T06:15:39.727Z,2.33
2019-03-05T06:19:43.450Z,2.80
2019-03-05T06:23:47.186Z,3.10
2019-03-05T06:27:50.905Z,2.60
2019-03-05T06:31:54.196Z,3.57
2019-03-05T06:35:58.266Z,2.53
2019-03-05T06:40:01.990Z,3.23
2019-03-05T06:44:05.313Z,5.17
2019-03-05T06:48:08.604Z,5.83
2019-03-05T06:52:12.314Z,4.60
2019-03-05T06:56:16.042Z,3.40
2019-03-05T07:00:26.138Z,3.43
2019-03-05T07:04:29.719Z,3.50
2019-03-05T07:08:33.870Z,3.20
2019-03-05T07:12:41.982Z,3.50
2019-03-05T07:17:25.694Z,5.43
2019-03-05T07:21:54.214Z,4.13
2019-03-05T07:25:57.510Z,3.50
2019-03-05T07:30:09.004Z,3.83
2019-03-05T07:34:18.886Z,5.47
2019-03-05T07:38:22.624Z,4.17
2019-03-05T07:42:26.350Z,3.20
2019-03-05T07:46:30.411Z,3.50
2019-03-05T07:50:33.713Z,4.10
2019-03-05T07:54:37.738Z,3.90
2019-03-05T07:58:41.363Z,4.57
2019-03-05T08:02:44.986Z,3.10
2019-03-05T08:06:48.355Z,2.90
2019-03-05T08:10:52.087Z,2.70
2019-03-05T08:15:02.598Z,2.30
2019-03-05T08:19:05.880Z,2.30
2019-03-05T08:23:09.250Z,2.90
2019-03-05T08:27:13.210Z,2.87
2019-03-05T08:31:16.546Z,3.07
2019-03-05T08:35:20.146Z,2.60
2019-03-05T08:39:23.442Z,3.20
2019-03-05T08:43:27.154Z,3.50
2019-03-05T08:47:30.726Z,2.57
2019-03-05T08:51:34.010Z,4.13
2019-03-05T08:55:37.370Z,3.13
2019-03-05T08:59:40.650Z,4.00
2019-03-05T09:03:44.251Z,3.63
2019-03-05T09:07:48.442Z,3.33
2019-03-05T09:11:52.173Z,3.60
2019-03-05T09:15:55.458Z,4.50
2019-03-05T09:19:59.174Z,4.10
2019-03-05T09:24:02.914Z,2.90
2019-03-05T09:28:07.386Z,2.70
2019-03-05T09:32:10.830Z,2.93
2019-03-05T09:36:14.383Z,2.20
2019-03-05T09:40:18.660Z,2.33
2019-03-05T09:44:21.947Z,2.03
2019-03-05T09:48:26.112Z,2.30
2019-03-05T09:52:29.853Z,2.17
2019-03-05T09:56:33.124Z,2.50
2019-03-05T10:00:37.182Z,1.97
2019-03-05T10:04:40.925Z,2.77
2019-03-05T10:08:44.294Z,1.87
2019-03-05T10:12:48.511Z,2.53
2019-03-05T10:16:51.794Z,2.67
2019-03-05T10:20:55.066Z,2.17
2019-03-05T10:25:05.809Z,3.13
2019-03-05T10:29:05.466Z,3.33
2019-03-05T10:33:09.991Z,2.07
2019-03-05T10:37:18.790Z,1.63
2019-03-05T10:41:18.906Z,1.27
2019-03-05T10:45:22.646Z,1.80
2019-03-05T10:49:26.035Z,1.60
2019-03-05T10:53:29.489Z,2.00
2019-03-05T10:57:32.787Z,2.23
2019-03-05T11:01:36.098Z,1.83
2019-03-05T11:05:39.658Z,1.73
2019-03-05T11:09:43.882Z,2.33
2019-03-05T11:13:47.690Z,2.60
2019-03-05T11:17:51.066Z,2.93
2019-03-05T11:21:54.806Z,2.80
2019-03-05T11:25:59.238Z,2.70
2019-03-05T11:30:02.982Z,2.37
2019-03-05T11:34:06.782Z,1.90
2019-03-05T11:38:10.083Z,1.93
2019-03-05T11:42:13.454Z,2.53
2019-03-05T11:46:17.218Z,2.23
2019-03-05T11:50:21.317Z,2.43
2019-03-05T11:54:24.674Z,1.93
2019-03-05T11:58:28.083Z,2.80
2019-03-05T12:02:31.835Z,2.27
2019-03-05T12:06:35.575Z,2.50
2019-03-05T12:10:39.187Z,2.83
2019-03-05T12:14:43.007Z,2.40
2019-03-05T12:18:46.321Z,1.87
2019-03-05T12:22:49.847Z,2.00
2019-03-05T12:26:53.130Z,2.13
2019-03-05T12:30:56.438Z,2.60
2019-03-05T12:34:59.730Z,1.50
2019-03-05T12:39:04.698Z,2.00
2019-03-05T12:43:07.978Z,1.47
2019-03-05T12:47:11.706Z,2.03
2019-03-05T12:51:15.030Z,1.90
2019-03-05T12:55:19.298Z,1.97
2019-03-05T12:59:22.594Z,1.80
2019-03-05T13:03:25.870Z,1.60
2019-03-05T13:07:29.610Z,1.97
2019-03-05T13:11:32.894Z,1.80
2019-03-05T13:15:36.309Z,2.60
2019-03-05T13:19:39.603Z,2.07
2019-03-05T13:23:43.342Z,1.80
2019-03-05T13:27:48.014Z,2.00
2019-03-05T13:31:51.998Z,2.00
2019-03-05T13:35:55.294Z,2.00
2019-03-05T13:39:59.216Z,1.73
2019-03-05T13:44:03.092Z,1.73
2019-03-05T13:48:14.861Z,1.80
2019-03-05T13:52:35.942Z,1.87
2019-03-05T13:57:22.857Z,1.70
2019-03-05T14:01:28.427Z,1.50
2019-03-05T14:06:09.604Z,2.13
2019-03-05T14:10:13.400Z,1.50
2019-03-05T14:14:28.444Z,1.73
2019-03-05T14:18:32.233Z,1.97
2019-03-05T14:22:36.019Z,1.83
2019-03-05T14:26:39.940Z,1.50
2019-03-05T14:30:44.183Z,1.20
2019-03-05T14:35:21.121Z,2.33
2019-03-05T14:39:28.227Z,1.50
2019-03-05T14:43:31.910Z,2.10
2019-03-05T14:47:35.778Z,1.80
2019-03-05T14:51:39.719Z,2.20
2019-03-05T14:55:43.653Z,1.60
2019-03-05T14:59:47.637Z,1.40
2019-03-05T15:03:51.448Z,1.60
2019-03-05T15:07:55.266Z,1.73
2019-03-05T15:11:59.268Z,2.33
2019-03-05T15:16:03.173Z,1.70
2019-03-05T15:20:07.824Z,1.80
2019-03-05T15:24:11.600Z,2.50
2019-03-05T15:28:15.353Z,2.23
2019-03-05T15:32:19.099Z,1.70
2019-03-05T15:36:24.030Z,1.30
2019-03-05T15:40:28.113Z,1.70
2019-03-05T15:44:32.180Z,1.60
2019-03-05T15:48:36.017Z,1.70
2019-03-05T15:52:39.809Z,1.63
2019-03-05T15:56:43.586Z,1.83
2019-03-05T16:00:47.367Z,1.97
2019-03-05T16:04:51.685Z,1.63
2019-03-05T16:08:57.911Z,2.50
2019-03-05T16:13:00.858Z,1.80
2019-03-05T16:17:04.582Z,1.50
2019-03-05T16:21:08.330Z,1.40
2019-03-05T16:25:13.854Z,1.70
2019-03-05T16:29:20.086Z,2.10
2019-03-05T16:33:36.745Z,3.30
2019-03-05T16:37:57.683Z,2.10
2019-03-05T16:42:14.494Z,2.17
2019-03-05T16:46:25.582Z,2.90
2019-03-05T16:50:40.002Z,2.10
2019-03-05T16:54:52.146Z,2.20
2019-03-05T16:59:14.782Z,2.80
2019-03-05T17:03:25.655Z,2.30
2019-03-05T17:07:47.710Z,1.97
2019-03-05T17:11:54.800Z,2.57
2019-03-05T17:15:58.858Z,2.90
2019-03-05T17:20:02.660Z,2.20
2019-03-05T17:24:06.927Z,2.67
2019-03-05T17:28:10.718Z,3.63
2019-03-05T17:32:14.856Z,2.70
2019-03-05T17:36:18.550Z,3.43
2019-03-05T17:40:22.270Z,2.90
2019-03-05T17:44:26.122Z,2.93
2019-03-05T17:48:29.847Z,2.47
2019-03-05T17:52:33.567Z,1.90
2019-03-05T17:56:37.274Z,2.00
2019-03-05T18:00:42.426Z,2.77
2019-03-05T18:04:46.154Z,2.53
2019-03-05T18:08:49.937Z,2.73
2019-03-05T18:12:53.784Z,3.60
2019-03-05T18:16:57.899Z,5.90
2019-03-05T18:21:03.317Z,3.60
2019-03-05T18:25:07.906Z,3.07
2019-03-05T18:29:11.687Z,2.40
2019-03-05T18:33:15.434Z,2.10
2019-03-05T18:37:19.226Z,2.50
2019-03-05T18:41:22.942Z,2.30
2019-03-05T18:45:28.084Z,3.40
2019-03-05T18:49:31.906Z,2.70
2019-03-05T18:53:35.610Z,2.27
2019-03-05T18:57:39.334Z,2.90
2019-03-05T19:01:43.135Z,2.30
2019-03-05T19:05:46.923Z,3.40
2019-03-05T19:09:50.951Z,2.43
2019-03-05T19:13:54.659Z,2.23
2019-03-05T19:17:58.525Z,2.53
2019-03-05T19:22:02.234Z,2.50
2019-03-05T19:26:07.546Z,2.83
2019-03-05T19:30:13.998Z,2.63
2019-03-05T19:34:17.893Z,4.53
2019-03-05T19:38:21.799Z,3.43
2019-03-05T19:42:25.163Z,2.90
2019-03-05T19:46:29.043Z,3.20
2019-03-05T19:50:32.549Z,4.00
2019-03-05T19:54:36.294Z,3.50
2019-03-05T19:58:39.850Z,3.43
2019-03-05T20:02:44.531Z,3.47
2019-03-05T20:06:48.075Z,3.40
2019-03-05T20:10:52.001Z,3.17
2019-03-05T20:14:55.416Z,3.27
2019-03-05T20:18:58.819Z,3.07
2019-03-05T20:23:02.261Z,2.97
2019-03-05T20:27:05.611Z,3.00
2019-03-05T20:31:09.105Z,3.80
2019-03-05T20:35:12.900Z,3.00
2019-03-05T20:39:17.683Z,3.53
2019-03-05T20:43:21.113Z,3.60
2019-03-05T20:47:24.525Z,3.53
2019-03-05T20:51:28.333Z,3.90
2019-03-05T20:55:32.029Z,4.43
2019-03-05T20:59:35.383Z,2.60
2019-03-05T21:03:39.678Z,3.23
2019-03-05T21:07:43.103Z,3.57
2019-03-05T21:11:46.450Z,3.40
2019-03-05T21:15:50.398Z,3.30
2019-03-05T21:19:53.749Z,3.83
2019-03-05T21:23:57.362Z,3.83
2019-03-05T21:28:01.155Z,4.03
2019-03-05T21:32:04.581Z,3.53
2019-03-05T21:36:08.158Z,2.93
2019-03-05T21:40:17.668Z,4.70
2019-03-05T21:44:21.299Z,3.30
2019-03-05T21:48:24.757Z,4.03
2019-03-05T21:52:28.120Z,3.17
2019-03-05T21:56:31.463Z,3.07
2019-03-05T22:00:34.978Z,4.03
2019-03-05T22:04:39.811Z,4.00
2019-03-05T22:08:43.138Z,3.73
2019-03-05T22:12:46.440Z,5.47
2019-03-05T22:16:50.381Z,4.20
2019-03-05T22:20:54.150Z,3.60
2019-03-05T22:24:57.488Z,4.47
2019-03-05T22:29:00.828Z,3.63
2019-03-05T22:33:04.825Z,3.37
2019-03-05T22:37:08.141Z,4.43
2019-03-05T22:41:11.449Z,4.80
2019-03-05T22:45:15.770Z,4.53
2019-03-05T22:49:19.152Z,4.00
2019-03-05T22:53:22.936Z,3.80
2019-03-05T22:57:26.263Z,4.37
2019-03-05T23:01:37.984Z,3.97
2019-03-05T23:05:41.938Z,5.90
2019-03-05T23:09:45.418Z,4.40
2019-03-05T23:13:49.233Z,4.70
2019-03-05T23:17:52.622Z,5.33
2019-03-05T23:21:56.150Z,5.13
2019-03-05T23:25:59.481Z,5.80
2019-03-05T23:30:02.891Z,4.13
2019-03-05T23:34:06.247Z,6.10
2019-03-05T23:38:09.675Z,5.30
2019-03-05T23:42:13.883Z,6.70
2019-03-05T23:46:17.642Z,6.30
2019-03-05T23:50:20.972Z,6.20
2019-03-05T23:54:24.807Z,5.97
2019-03-05T23:58:28.911Z,8.87
